Lake Stevens, Washington
Current Conditions -  °F | °C
As of 11:35 AM on Tuesday 21 Oct 2014 (Local Time) from KAWO Reporting Station
Overcast Overcast  
Wind Chill: 57°   Ceiling: 2700
Heat Index: 57°   Visibility: 10mi
Dew Point: 50°   Wind: 13mph
Humidity: 77%   Direction: 150°SSE
Pressure: 29.91"   Gusts: NA
Location:  48.02°N, 122.06°W
Report Text: KAWO 211835Z AUTO 15011KT 10SM FEW021 BKN027 OVC033 14/10 A2991 RMK AO1
Loading
Personal Weather Stations






























Interactive Weather Map
Tropical Storm Tracking
New forecast layout! Learn more

10-Day Weather Forecast

Advertisements
Track Severe Weather on mobile